Time;durP1;ratioP1;P1;durP2;ratioP2;P2;SDS_P1;SDS_P2;PMS_P1;PMS_P2;Temp;Humidity;BMP_temperature;BMP_pressure;BME280_temperature;BME280_humidity;BME280_pressure;Samples;Min_cycle;Max_cycle;Signal;HPM_P1;HPM_P2
2021/05/18 00:00:51;;;;;;;4.80;4.30;;;9.20;99.90;;;;;;5051994;28;20847;-64
2021/05/18 00:03:18;;;;;;;5.43;5.03;;;9.10;99.90;;;;;;5052208;28;20659;-64
2021/05/18 00:05:52;;;;;;;4.33;3.93;;;9.20;99.90;;;;;;5052232;28;20192;-63
2021/05/18 00:08:20;;;;;;;5.63;4.87;;;9.20;99.90;;;;;;5052288;28;20406;-64
2021/05/18 00:13:34;;;;;;;10.73;5.00;;;9.10;99.90;;;;;;5052187;28;20410;-63
2021/05/18 00:16:03;;;;;;;8.13;5.37;;;9.20;99.90;;;;;;5052229;28;20452;-63
2021/05/18 00:18:28;;;;;;;7.30;5.33;;;9.20;99.90;;;;;;5052016;28;20791;-63
2021/05/18 00:20:55;;;;;;;7.93;5.00;;;9.20;99.90;;;;;;5052105;28;20449;-64
2021/05/18 00:23:21;;;;;;;6.27;5.60;;;9.30;99.90;;;;;;5052323;28;20628;-64
2021/05/18 00:25:47;;;;;;;7.70;4.80;;;9.20;99.90;;;;;;5052387;28;20402;-64
2021/05/18 00:28:12;;;;;;;5.10;4.27;;;9.20;99.90;;;;;;5052509;28;20394;-63
2021/05/18 00:30:40;;;;;;;5.30;4.50;;;9.20;99.90;;;;;;5051981;28;20430;-63
2021/05/18 00:33:13;;;;;;;5.97;5.30;;;9.10;99.90;;;;;;5052001;28;20160;-64
2021/05/18 00:35:40;;;;;;;5.00;4.60;;;9.10;99.90;;;;;;5052195;28;20464;-63
2021/05/18 00:38:05;;;;;;;8.17;4.97;;;9.20;99.90;;;;;;5052214;28;20407;-63
2021/05/18 00:40:31;;;;;;;8.30;5.00;;;9.20;99.90;;;;;;5051861;28;20453;-63
2021/05/18 00:42:57;;;;;;;6.93;6.23;;;9.20;99.90;;;;;;5050571;28;20199;-63
2021/05/18 00:45:35;;;;;;;4.67;4.27;;;9.20;99.90;;;;;;5051882;28;20198;-63
2021/05/18 00:48:02;;;;;;;6.17;4.57;;;9.20;99.90;;;;;;5052230;28;20191;-63
2021/05/18 00:50:28;;;;;;;9.87;6.00;;;9.20;99.90;;;;;;5052066;28;20473;-63
2021/05/18 00:52:54;;;;;;;10.47;5.67;;;9.20;99.90;;;;;;5052428;28;20794;-63
2021/05/18 00:58:34;;;;;;;10.13;4.90;;;9.10;99.90;;;;;;5069608;28;20225;-63
2021/05/18 01:01:06;;;;;;;8.73;5.30;;;9.10;99.90;;;;;;5069187;28;20619;-63
2021/05/18 01:03:33;;;;;;;11.53;6.67;;;9.10;99.90;;;;;;5059685;28;20930;-64
2021/05/18 01:08:44;;;;;;;8.20;5.60;;;9.10;99.90;;;;;;5053829;28;20472;-63
2021/05/18 01:11:11;;;;;;;5.43;4.93;;;9.10;99.90;;;;;;5055248;28;20421;-63
2021/05/18 01:13:37;;;;;;;11.80;5.87;;;9.10;99.90;;;;;;5055418;28;20434;-63
2021/05/18 01:16:07;;;;;;;7.63;4.73;;;9.10;99.90;;;;;;5055402;28;20959;-63
2021/05/18 01:18:41;;;;;;;9.10;4.83;;;9.00;99.90;;;;;;5055493;28;20255;-63
2021/05/18 01:21:07;;;;;;;8.00;5.57;;;9.00;99.90;;;;;;5055174;28;20492;-63
2021/05/18 01:23:34;;;;;;;7.40;5.53;;;9.00;99.90;;;;;;5056137;28;20395;-63
2021/05/18 01:26:00;;;;;;;5.20;4.70;;;9.00;99.90;;;;;;5055641;28;20403;-63
2021/05/18 01:28:27;;;;;;;5.50;5.00;;;9.00;99.90;;;;;;5053955;28;20476;-63
2021/05/18 01:30:53;;;;;;;9.23;4.80;;;8.90;99.90;;;;;;5055404;28;20421;-63
2021/05/18 01:33:19;;;;;;;10.53;4.50;;;9.00;99.90;;;;;;5054979;28;20545;-63
2021/05/18 01:35:46;;;;;;;9.77;5.70;;;9.00;99.90;;;;;;5055210;28;20403;-63
2021/05/18 01:38:15;;;;;;;6.87;4.83;;;9.00;99.90;;;;;;5055378;28;20555;-63
2021/05/18 01:43:27;;;;;;;10.07;5.10;;;8.90;99.90;;;;;;5064036;28;20559;-63
2021/05/18 01:45:52;;;;;;;12.50;4.57;;;8.90;99.90;;;;;;5054979;28;20411;-63
2021/05/18 01:48:18;;;;;;;6.23;5.63;;;8.90;99.90;;;;;;5055215;28;20566;-63
2021/05/18 01:50:47;;;;;;;6.70;4.00;;;8.90;99.90;;;;;;5054725;28;20219;-63
2021/05/18 01:53:16;;;;;;;5.37;3.80;;;8.90;99.90;;;;;;5054645;28;20836;-63
2021/05/18 01:58:22;;;;;;;9.13;5.10;;;8.80;99.90;;;;;;5054561;28;20421;-63
2021/05/18 02:00:48;;;;;;;6.00;3.80;;;8.80;99.90;;;;;;5054415;28;20565;-63
2021/05/18 02:03:14;;;;;;;5.50;4.03;;;8.90;99.90;;;;;;5054566;28;20915;-63
2021/05/18 02:05:41;;;;;;;10.60;4.67;;;8.80;99.90;;;;;;5054532;28;20410;-63
2021/05/18 02:08:11;;;;;;;6.70;4.40;;;8.90;99.90;;;;;;5054757;28;20168;-63
2021/05/18 02:10:38;;;;;;;7.57;4.00;;;8.80;99.90;;;;;;5053737;28;20441;-63
2021/05/18 02:13:04;;;;;;;7.70;5.33;;;8.80;99.90;;;;;;5054670;28;20410;-63
2021/05/18 02:15:46;;;;;;;6.40;4.40;;;8.80;99.90;;;;;;5054430;28;20486;-63
2021/05/18 02:21:16;;;;;;;7.80;5.27;;;8.70;99.90;;;;;;5054069;28;20454;-63
2021/05/18 02:26:26;;;;;;;9.00;4.83;;;8.70;99.90;;;;;;5053779;28;20476;-63
2021/05/18 02:28:52;;;;;;;11.37;5.63;;;8.70;99.90;;;;;;5053365;28;20906;-63
2021/05/18 02:31:18;;;;;;;6.27;4.90;;;8.70;99.90;;;;;;5053473;28;20267;-63
2021/05/18 02:33:49;;;;;;;4.40;4.00;;;8.70;99.90;;;;;;5053787;28;20171;-63
2021/05/18 02:36:16;;;;;;;6.13;4.67;;;8.70;99.90;;;;;;5053699;28;20402;-63
2021/05/18 02:38:42;;;;;;;5.83;5.03;;;8.70;99.90;;;;;;5054111;28;20379;-63
2021/05/18 02:41:08;;;;;;;5.43;5.00;;;8.60;99.90;;;;;;5053749;28;20973;-63
2021/05/18 02:44:11;;;;;;;4.67;4.23;;;8.60;99.90;;;;;;5054123;28;20407;-63
2021/05/18 02:49:11;;;;;;;5.70;5.20;;;8.60;99.90;;;;;;5053864;28;20402;-63
2021/05/18 02:51:41;;;;;;;7.30;4.90;;;8.70;99.90;;;;;;5053550;28;20191;-64
2021/05/18 02:54:09;;;;;;;5.83;5.23;;;8.70;99.90;;;;;;5053377;28;20407;-63
2021/05/18 02:56:42;;;;;;;6.17;5.13;;;8.70;99.90;;;;;;5054077;28;20426;-64
2021/05/18 02:59:12;;;;;;;5.63;4.17;;;8.70;99.90;;;;;;5053661;28;20410;-63
2021/05/18 03:01:39;;;;;;;9.13;4.90;;;8.70;99.90;;;;;;5053543;28;20458;-63
2021/05/18 03:04:05;;;;;;;7.30;4.13;;;8.70;99.90;;;;;;5053603;28;20402;-63
2021/05/18 03:06:31;;;;;;;5.77;4.07;;;8.60;99.90;;;;;;5053642;28;20429;-63
2021/05/18 03:08:57;;;;;;;5.50;4.40;;;8.60;99.90;;;;;;5053388;28;20899;-63
2021/05/18 03:11:23;;;;;;;7.27;5.90;;;8.70;99.90;;;;;;5053285;28;20419;-63
2021/05/18 03:13:48;;;;;;;11.70;5.10;;;8.70;99.90;;;;;;5054051;28;20252;-63
2021/05/18 03:16:14;;;;;;;5.53;5.00;;;8.80;99.90;;;;;;5053558;28;20183;-63
2021/05/18 03:18:40;;;;;;;6.97;5.40;;;8.80;99.90;;;;;;5053783;28;20675;-63
2021/05/18 03:21:05;;;;;;;5.33;4.50;;;8.80;99.90;;;;;;5053018;28;20187;-63
2021/05/18 03:23:31;;;;;;;11.20;5.53;;;8.70;99.90;;;;;;5053620;28;20199;-63
2021/05/18 03:25:57;;;;;;;14.70;6.03;;;8.70;99.90;;;;;;5053619;28;20968;-63
2021/05/18 03:28:22;;;;;;;8.20;5.03;;;8.70;99.90;;;;;;5053587;28;20168;-63
2021/05/18 03:35:59;;;;;;;7.70;5.80;;;8.70;99.90;;;;;;5052276;28;20456;-64
2021/05/18 03:38:27;;;;;;;8.03;4.30;;;8.70;99.90;;;;;;5052290;28;20402;-63
2021/05/18 03:40:57;;;;;;;11.13;4.57;;;8.70;99.90;;;;;;5052847;28;20204;-64
2021/05/18 03:43:39;;;;;;;3.30;2.80;;;8.70;99.90;;;;;;5053467;28;20402;-63
2021/05/18 04:04:48;;;;;;;4.00;3.70;;;8.60;99.90;;;;;;5052828;28;20906;-63
2021/05/18 04:11:00;;;;;;;3.27;2.80;;;8.60;99.90;;;;;;5052734;28;20426;-63
2021/05/18 04:18:21;;;;;;;4.40;2.67;;;8.60;99.90;;;;;;5052519;28;20443;-64
2021/05/18 04:39:29;;;;;;;3.07;2.80;;;8.60;99.90;;;;;;5052142;28;20410;-63
2021/05/18 04:42:27;;;;;;;3.10;2.90;;;8.60;99.90;;;;;;5052330;28;20450;-64
2021/05/18 04:50:30;;;;;;;4.40;3.80;;;8.50;99.90;;;;;;5055910;28;20472;-64
2021/05/18 05:00:58;;;;;;;5.10;4.40;;;8.60;99.90;;;;;;5055440;28;20494;-64
2021/05/18 05:16:17;;;;;;;8.53;4.57;;;8.70;99.90;;;;;;5055583;28;20163;-63
2021/05/18 05:18:42;;;;;;;9.20;6.20;;;8.70;99.90;;;;;;5056066;28;20410;-63
2021/05/18 05:21:09;;;;;;;8.03;4.90;;;8.70;99.90;;;;;;5055016;28;20653;-64
2021/05/18 05:23:34;;;;;;;4.80;4.27;;;8.80;99.90;;;;;;5055309;28;20168;-63
2021/05/18 05:26:00;;;;;;;5.20;4.67;;;8.90;99.90;;;;;;5055493;28;20417;-63
2021/05/18 05:28:26;;;;;;;5.97;5.47;;;8.90;99.90;;;;;;5055592;28;20195;-63
2021/05/18 05:30:51;;;;;;;5.77;5.17;;;8.90;99.90;;;;;;5055181;28;20263;-63
2021/05/18 05:33:17;;;;;;;6.87;4.70;;;8.90;99.90;;;;;;5055298;28;20176;-63
2021/05/18 05:35:42;;;;;;;5.90;4.70;;;8.90;99.90;;;;;;5055109;28;20204;-64
2021/05/18 05:38:08;;;;;;;5.07;4.37;;;8.90;99.90;;;;;;5055602;28;20227;-63
2021/05/18 05:40:34;;;;;;;4.90;4.50;;;8.80;99.90;;;;;;5055170;28;20671;-63
2021/05/18 05:43:00;;;;;;;5.50;5.00;;;8.90;99.90;;;;;;5055086;28;20164;-63
2021/05/18 05:45:25;;;;;;;4.70;4.30;;;8.90;99.90;;;;;;5054718;28;20437;-63
2021/05/18 05:47:51;;;;;;;6.80;5.37;;;9.00;99.90;;;;;;5055244;28;20164;-63
2021/05/18 05:50:17;;;;;;;5.80;5.20;;;9.00;99.90;;;;;;5054635;28;20668;-64
2021/05/18 05:52:43;;;;;;;8.13;5.37;;;9.00;99.90;;;;;;5054587;28;20171;-63
2021/05/18 05:55:10;;;;;;;9.40;6.10;;;9.10;99.90;;;;;;5054202;28;20189;-64
2021/05/18 05:57:36;;;;;;;10.43;6.10;;;9.10;99.90;;;;;;5054459;28;20168;-63
2021/05/18 06:00:08;;;;;;;6.07;5.47;;;9.20;99.90;;;;;;5054236;28;20438;-63
2021/05/18 06:02:33;;;;;;;7.30;6.57;;;9.20;99.90;;;;;;5054520;28;20399;-64
2021/05/18 06:04:59;;;;;;;7.90;7.20;;;9.20;99.90;;;;;;5054697;28;20441;-63
2021/05/18 06:07:24;;;;;;;7.23;6.10;;;9.10;99.90;;;;;;5054777;28;20164;-63
2021/05/18 06:09:55;;;;;;;7.17;5.93;;;9.10;99.90;;;;;;5054043;28;20302;-64
2021/05/18 06:49:34;;;;;;;9.00;5.60;;;9.40;99.90;;;;;;5052992;28;20521;-63
2021/05/18 06:52:00;;;;;;;7.27;6.47;;;9.40;99.90;;;;;;5053146;28;20247;-63
2021/05/18 06:54:26;;;;;;;6.80;5.67;;;9.40;99.90;;;;;;5053162;28;20553;-64
2021/05/18 06:56:54;;;;;;;6.70;5.00;;;9.30;99.90;;;;;;5052946;28;20176;-64
2021/05/18 07:01:45;;;;;;;6.60;5.83;;;9.30;99.90;;;;;;5052797;28;20461;-64
2021/05/18 07:04:12;;;;;;;8.33;5.90;;;9.40;99.90;;;;;;5052998;28;20175;-63
2021/05/18 07:09:04;;;;;;;8.23;5.93;;;9.50;99.90;;;;;;5052990;28;20497;-64
2021/05/18 07:11:30;;;;;;;6.63;5.13;;;9.40;99.90;;;;;;5052829;28;20199;-64
2021/05/18 07:13:56;;;;;;;5.80;5.17;;;9.40;99.90;;;;;;5053124;28;20722;-64
2021/05/18 07:16:22;;;;;;;6.97;6.37;;;9.50;99.90;;;;;;5051451;28;20444;-63
2021/05/18 07:18:47;;;;;;;8.37;6.97;;;9.60;99.90;;;;;;5052857;28;20172;-64
2021/05/18 07:21:13;;;;;;;5.57;5.07;;;9.70;99.90;;;;;;5052451;28;20814;-64
2021/05/18 07:23:39;;;;;;;7.83;5.30;;;9.90;99.90;;;;;;5052762;28;20179;-63
2021/05/18 07:26:05;;;;;;;5.93;5.53;;;10.10;99.90;;;;;;5052453;28;20584;-64
2021/05/18 07:28:32;;;;;;;6.33;5.17;;;10.20;99.90;;;;;;5052309;28;20187;-64
2021/05/18 07:30:59;;;;;;;5.73;5.17;;;10.30;99.90;;;;;;5052019;28;20440;-64
2021/05/18 07:33:26;;;;;;;6.53;5.93;;;10.40;99.90;;;;;;5052379;28;20776;-63
2021/05/18 07:36:03;;;;;;;6.13;4.67;;;10.50;99.90;;;;;;5052036;28;20476;-61
2021/05/18 07:38:29;;;;;;;5.50;5.03;;;10.50;99.90;;;;;;5052337;28;20410;-61
2021/05/18 07:40:55;;;;;;;6.17;5.57;;;10.40;99.90;;;;;;5051969;28;20464;-62
2021/05/18 07:43:21;;;;;;;6.07;5.47;;;10.60;99.90;;;;;;5052192;28;20399;-61
2021/05/18 07:45:55;;;;;;;6.23;5.60;;;10.50;99.90;;;;;;5051923;28;20924;-63
2021/05/18 08:06:53;;;;;;;7.57;5.57;;;11.60;99.90;;;;;;5051971;28;20398;-61
2021/05/18 08:09:21;;;;;;;5.13;4.63;;;11.80;99.90;;;;;;5051265;28;20418;-61
2021/05/18 08:11:47;;;;;;;5.57;5.03;;;11.90;99.90;;;;;;5051727;28;20175;-63
2021/05/18 08:14:12;;;;;;;7.73;5.80;;;12.00;99.90;;;;;;5051780;28;20447;-61
2021/05/18 08:16:57;;;;;;;6.03;5.50;;;11.90;99.90;;;;;;5052269;28;20226;-61
2021/05/18 08:55:36;;;;;;;5.80;3.30;;;11.10;99.90;;;;;;5055091;28;20429;-66
2021/05/18 10:34:39;;;;;;;3.13;2.93;;;12.40;99.90;;;;;;5053372;28;20406;-61
2021/05/18 10:37:47;;;;;;;2.60;2.40;;;12.70;99.90;;;;;;5053212;28;20497;-62
2021/05/18 10:40:25;;;;;;;2.30;2.20;;;12.80;99.90;;;;;;5049519;28;20473;-62
2021/05/18 10:43:23;;;;;;;3.00;2.80;;;12.60;99.90;;;;;;5053001;28;20513;-62
2021/05/18 10:45:55;;;;;;;3.23;2.40;;;12.20;99.90;;;;;;5053048;28;20484;-62
2021/05/18 10:48:25;;;;;;;3.20;2.30;;;12.20;99.90;;;;;;5053275;28;20403;-63
2021/05/18 10:50:50;;;;;;;2.10;1.80;;;12.20;99.90;;;;;;5052986;28;20429;-61
2021/05/18 10:53:23;;;;;;;2.33;2.13;;;12.20;99.90;;;;;;5053429;28;20764;-62
2021/05/18 10:56:07;;;;;;;2.50;2.30;;;12.30;99.90;;;;;;5052931;28;20251;-62
2021/05/18 10:58:33;;;;;;;2.63;2.50;;;12.60;99.90;;;;;;5053264;28;20762;-62
2021/05/18 11:01:00;;;;;;;2.40;2.00;;;13.00;99.90;;;;;;5052679;28;20453;-62
2021/05/18 11:03:25;;;;;;;2.90;2.70;;;13.10;99.90;;;;;;5053087;28;20170;-62
2021/05/18 11:05:51;;;;;;;3.27;2.97;;;13.50;99.90;;;;;;5052782;28;20772;-62
2021/05/18 11:08:17;;;;;;;2.87;2.67;;;13.80;99.90;;;;;;5052790;28;20180;-62
2021/05/18 11:10:47;;;;;;;3.80;2.70;;;14.30;99.90;;;;;;5052228;28;20516;-62
2021/05/18 11:13:13;;;;;;;3.00;2.90;;;14.80;99.90;;;;;;5052729;28;20497;-62
2021/05/18 11:15:38;;;;;;;2.43;2.33;;;15.20;99.90;;;;;;5052419;28;20775;-62
2021/05/18 11:18:04;;;;;;;3.03;2.83;;;15.10;99.90;;;;;;5052429;28;20398;-63
2021/05/18 11:25:56;;;;;;;2.70;2.60;;;15.10;98.80;;;;;;5052259;28;20425;-62
2021/05/18 11:28:33;;;;;;;3.23;3.03;;;15.00;99.90;;;;;;5052637;28;20399;-63
2021/05/18 11:31:05;;;;;;;3.03;2.50;;;15.70;99.90;;;;;;5052392;28;20430;-62
2021/05/18 11:33:42;;;;;;;3.63;2.50;;;16.00;99.90;;;;;;5052532;28;20405;-63
2021/05/18 11:36:19;;;;;;;4.40;3.10;;;15.90;99.90;;;;;;5052041;28;20445;-63
2021/05/18 11:38:54;;;;;;;3.20;3.00;;;15.50;98.90;;;;;;5052334;28;20405;-63
2021/05/18 11:41:21;;;;;;;3.27;2.97;;;15.20;99.70;;;;;;5051826;28;20449;-62
2021/05/18 11:43:51;;;;;;;4.00;3.47;;;15.00;99.90;;;;;;5051958;28;20804;-63
2021/05/18 11:46:17;;;;;;;3.20;3.00;;;14.90;99.90;;;;;;5052484;28;20477;-63
2021/05/18 11:49:00;;;;;;;3.53;3.03;;;15.30;99.90;;;;;;5052286;28;20402;-63
2021/05/18 11:51:29;;;;;;;4.20;3.47;;;15.50;99.90;;;;;;5051757;28;20402;-63
2021/05/18 11:53:55;;;;;;;4.10;3.80;;;15.90;99.90;;;;;;5052078;28;20446;-62
2021/05/18 11:56:45;;;;;;;3.60;3.40;;;15.90;99.90;;;;;;5051996;28;20403;-63
2021/05/18 11:59:12;;;;;;;3.40;3.20;;;16.00;99.50;;;;;;5051760;28;20434;-63
2021/05/18 12:01:44;;;;;;;5.60;4.30;;;15.80;98.20;;;;;;5051614;28;20458;-63
2021/05/18 12:04:12;;;;;;;3.47;3.27;;;15.40;98.50;;;;;;5051750;28;20477;-62
2021/05/18 12:06:41;;;;;;;3.70;3.40;;;15.30;99.90;;;;;;5051790;28;20431;-61
2021/05/18 12:09:14;;;;;;;4.60;4.30;;;14.80;99.10;;;;;;5051946;28;20776;-61
2021/05/18 12:11:39;;;;;;;4.20;3.90;;;14.60;99.90;;;;;;5051648;28;20441;-61
2021/05/18 12:14:09;;;;;;;4.10;3.80;;;14.30;99.90;;;;;;5051547;28;20410;-61
2021/05/18 12:16:41;;;;;;;4.17;3.87;;;13.90;99.90;;;;;;5051555;28;20644;-61
2021/05/18 12:19:11;;;;;;;4.73;4.33;;;13.80;99.90;;;;;;5051724;28;20992;-62
2021/05/18 12:21:36;;;;;;;5.77;3.63;;;13.70;99.90;;;;;;5051805;28;20837;-62
2021/05/18 12:24:06;;;;;;;4.43;4.13;;;13.60;99.90;;;;;;5051566;28;20418;-63
2021/05/18 12:26:43;;;;;;;5.20;4.70;;;13.50;99.90;;;;;;5051566;28;20245;-60
2021/05/18 12:29:09;;;;;;;4.27;3.97;;;13.50;99.90;;;;;;5051295;28;20421;-60
2021/05/18 12:31:36;;;;;;;4.40;4.10;;;13.50;99.90;;;;;;5051220;28;20407;-63
2021/05/18 12:34:05;;;;;;;4.73;4.43;;;13.40;99.90;;;;;;5051762;28;20184;-61
2021/05/18 12:36:44;;;;;;;4.73;4.33;;;13.80;99.90;;;;;;5051600;28;20410;-61
2021/05/18 12:39:15;;;;;;;4.33;4.03;;;14.40;99.90;;;;;;5051297;28;20428;-62
2021/05/18 12:41:57;;;;;;;8.20;5.70;;;14.90;99.90;;;;;;5051286;28;20461;-63
2021/05/18 12:44:26;;;;;;;8.53;4.80;;;15.90;99.90;;;;;;5051847;28;20472;-61
2021/05/18 12:47:01;;;;;;;5.40;5.00;;;16.30;99.90;;;;;;5051309;28;20498;-62
2021/05/18 12:49:49;;;;;;;6.87;5.53;;;16.50;99.90;;;;;;5051078;28;20426;-62
2021/05/18 12:52:16;;;;;;;5.07;4.67;;;17.30;99.90;;;;;;5051295;28;20472;-63
2021/05/18 12:54:44;;;;;;;4.67;4.20;;;18.10;99.90;;;;;;5051142;28;20446;-64
2021/05/18 12:57:14;;;;;;;6.30;5.70;;;18.40;99.90;;;;;;5051386;28;20414;-62
2021/05/18 12:59:55;;;;;;;4.17;3.70;;;18.80;97.30;;;;;;5051000;28;20422;-62
2021/05/18 13:02:48;;;;;;;4.10;3.50;;;18.20;96.30;;;;;;5051127;28;20454;-63
2021/05/18 13:05:16;;;;;;;3.70;3.50;;;17.90;98.40;;;;;;5053794;28;20419;-62
2021/05/18 13:07:44;;;;;;;3.90;3.60;;;17.70;95.90;;;;;;5055111;28;20406;-62
2021/05/18 13:10:13;;;;;;;4.10;3.80;;;17.40;97.90;;;;;;5054447;28;20505;-60
2021/05/18 13:12:39;;;;;;;4.23;3.87;;;17.10;97.90;;;;;;5054735;28;20406;-61
2021/05/18 13:15:10;;;;;;;4.00;3.70;;;16.80;97.90;;;;;;5054733;28;20425;-63
2021/05/18 13:17:37;;;;;;;3.60;3.40;;;16.50;98.30;;;;;;5054547;28;20188;-63
2021/05/18 13:20:05;;;;;;;4.00;3.70;;;16.40;99.20;;;;;;5054338;28;20434;-63
2021/05/18 13:22:33;;;;;;;3.40;3.20;;;16.30;99.80;;;;;;5054651;28;20454;-64
2021/05/18 13:27:37;;;;;;;3.73;3.43;;;16.40;99.20;;;;;;5054878;28;20806;-64
2021/05/18 13:30:04;;;;;;;3.43;3.17;;;16.30;99.70;;;;;;5054144;28;20456;-61
2021/05/18 13:32:30;;;;;;;3.77;3.47;;;16.10;96.60;;;;;;5054492;28;20436;-63
2021/05/18 13:34:55;;;;;;;3.80;3.50;;;15.70;97.50;;;;;;5054449;28;20999;-62
2021/05/18 13:37:21;;;;;;;3.80;3.50;;;15.60;97.60;;;;;;5054485;28;20636;-64
2021/05/18 13:39:47;;;;;;;4.40;4.00;;;15.50;99.80;;;;;;5054289;28;20634;-66
2021/05/18 13:42:12;;;;;;;4.90;3.90;;;15.30;97.70;;;;;;5054124;28;20218;-61
2021/05/18 13:44:38;;;;;;;3.70;3.47;;;15.40;99.00;;;;;;5054058;28;20176;-61
2021/05/18 13:47:03;;;;;;;5.07;4.67;;;15.70;99.90;;;;;;5054328;28;20175;-62
2021/05/18 13:49:29;;;;;;;3.67;3.47;;;16.10;99.90;;;;;;5053996;28;20213;-67
2021/05/18 13:51:55;;;;;;;5.13;4.73;;;16.60;99.70;;;;;;5054129;28;20168;-63
2021/05/18 13:54:20;;;;;;;5.27;4.87;;;17.10;98.70;;;;;;5054257;28;20181;-62
2021/05/18 13:56:46;;;;;;;6.23;5.70;;;17.20;96.30;;;;;;5054028;28;20233;-62
2021/05/18 13:59:12;;;;;;;18.03;9.10;;;16.80;94.70;;;;;;5054262;28;20190;-61
2021/05/18 14:01:37;;;;;;;5.67;5.27;;;16.70;95.40;;;;;;5053774;28;20860;-62
2021/05/18 14:04:03;;;;;;;7.90;5.80;;;16.70;96.20;;;;;;5053863;28;20181;-64
2021/05/18 14:06:30;;;;;;;7.17;5.17;;;16.60;96.60;;;;;;5053678;28;20172;-63
2021/05/18 14:08:56;;;;;;;5.77;5.30;;;16.70;97.80;;;;;;5053618;28;20321;-64
2021/05/18 14:11:23;;;;;;;5.63;5.13;;;16.70;97.40;;;;;;5053433;28;20505;-65
2021/05/18 14:13:51;;;;;;;6.33;5.83;;;16.80;96.90;;;;;;5053511;28;20632;-64
2021/05/18 14:16:22;;;;;;;7.10;6.57;;;16.90;93.00;;;;;;5053287;28;20406;-64
2021/05/18 14:18:53;;;;;;;6.87;6.37;;;17.00;96.20;;;;;;5053805;28;20918;-64
2021/05/18 14:21:20;;;;;;;6.10;5.63;;;17.70;95.20;;;;;;5053470;28;20457;-64
2021/05/18 14:26:22;;;;;;;8.90;8.00;;;17.40;91.70;;;;;;5053183;28;20761;-64
2021/05/18 14:28:48;;;;;;;5.10;4.70;;;17.30;94.40;;;;;;5053386;28;20847;-64
2021/05/18 14:31:14;;;;;;;3.73;3.53;;;16.90;94.90;;;;;;5051717;28;20518;-63
2021/05/18 14:33:41;;;;;;;4.33;4.00;;;16.60;91.90;;;;;;5053403;28;20183;-63
2021/05/18 14:36:08;;;;;;;4.37;4.03;;;16.10;92.30;;;;;;5053313;28;20471;-63
2021/05/18 14:38:34;;;;;;;3.97;3.70;;;16.00;95.30;;;;;;5053062;28;20410;-63
2021/05/18 14:46:38;;;;;;;5.17;4.30;;;15.40;97.80;;;;;;5053516;28;20445;-65
2021/05/18 14:56:48;;;;;;;4.87;4.47;;;15.30;98.30;;;;;;5052744;28;20442;-66
2021/05/18 14:59:13;;;;;;;5.37;4.80;;;15.80;98.60;;;;;;5052599;28;20484;-65
2021/05/18 15:01:39;;;;;;;4.30;4.00;;;16.40;99.70;;;;;;5052467;28;20233;-63
2021/05/18 15:04:05;;;;;;;3.73;3.53;;;17.00;96.80;;;;;;5052770;28;20206;-64
2021/05/18 15:06:31;;;;;;;5.60;4.10;;;17.00;93.70;;;;;;5052569;28;20251;-66
2021/05/18 15:08:57;;;;;;;4.77;4.47;;;17.00;94.50;;;;;;5052513;28;20168;-63
2021/05/18 15:11:23;;;;;;;6.23;4.67;;;16.90;94.90;;;;;;5052497;28;20430;-62
2021/05/18 15:13:49;;;;;;;5.10;4.07;;;16.60;95.40;;;;;;5052455;28;20426;-62
2021/05/18 15:16:14;;;;;;;4.83;4.53;;;16.40;94.80;;;;;;5052344;28;20782;-62
2021/05/18 15:18:40;;;;;;;5.03;4.70;;;16.20;97.50;;;;;;5052342;28;20263;-62
2021/05/18 15:21:05;;;;;;;9.17;5.60;;;16.10;98.40;;;;;;5051968;28;20204;-63
2021/05/18 15:23:31;;;;;;;5.87;5.47;;;16.20;97.80;;;;;;5052294;28;20557;-62
2021/05/18 15:25:58;;;;;;;6.43;6.03;;;16.40;99.10;;;;;;5052219;28;20179;-66
2021/05/18 15:28:24;;;;;;;5.27;4.87;;;16.40;97.00;;;;;;5051950;28;20398;-63
2021/05/18 15:30:49;;;;;;;4.87;4.37;;;16.70;97.40;;;;;;5051803;28;20796;-61
2021/05/18 15:33:15;;;;;;;6.00;5.50;;;16.90;97.00;;;;;;5052403;28;20182;-61
2021/05/18 15:35:41;;;;;;;6.20;5.70;;;16.60;95.20;;;;;;5052226;28;20632;-66
2021/05/18 15:38:06;;;;;;;5.27;4.80;;;16.00;93.60;;;;;;5052259;28;20179;-66
2021/05/18 15:40:33;;;;;;;5.73;5.13;;;15.60;94.50;;;;;;5051664;28;20200;-62
2021/05/18 15:42:58;;;;;;;5.10;4.80;;;15.50;97.30;;;;;;5052047;28;20628;-62
2021/05/18 15:45:24;;;;;;;5.53;5.23;;;15.20;96.60;;;;;;5052576;28;20402;-62
2021/05/18 15:47:49;;;;;;;4.47;4.07;;;15.10;97.80;;;;;;5051960;28;20554;-62
2021/05/18 15:50:15;;;;;;;4.57;4.20;;;15.20;97.30;;;;;;5051702;28;20188;-63
2021/05/18 15:52:41;;;;;;;4.17;3.87;;;15.30;97.10;;;;;;5051861;28;20187;-63
2021/05/18 15:55:08;;;;;;;3.87;3.57;;;15.40;96.20;;;;;;5051898;28;20214;-63
2021/05/18 15:57:34;;;;;;;3.90;3.60;;;15.60;96.70;;;;;;5051738;28;20169;-63
2021/05/18 16:00:00;;;;;;;3.90;3.60;;;16.10;97.60;;;;;;5051341;28;21072;-63
2021/05/18 16:02:25;;;;;;;3.07;2.87;;;16.40;97.00;;;;;;5051640;28;20203;-63
2021/05/18 16:04:51;;;;;;;3.80;3.50;;;16.70;96.70;;;;;;5051731;28;20641;-63
2021/05/18 16:07:18;;;;;;;4.30;3.20;;;16.80;95.10;;;;;;5051576;28;20402;-63
2021/05/18 16:09:44;;;;;;;4.00;3.70;;;17.00;95.60;;;;;;5051508;28;20184;-63
2021/05/18 16:12:11;;;;;;;8.60;3.63;;;17.00;93.90;;;;;;5051767;28;20755;-63
2021/05/18 16:14:37;;;;;;;3.97;3.73;;;17.30;95.70;;;;;;5051434;28;20415;-63
2021/05/18 16:17:03;;;;;;;3.60;3.30;;;17.50;95.10;;;;;;5051656;28;20413;-63
2021/05/18 16:19:29;;;;;;;3.40;3.13;;;17.30;93.30;;;;;;5051336;28;20568;-63
2021/05/18 16:21:55;;;;;;;4.27;3.97;;;17.30;94.20;;;;;;5051573;28;20552;-62
2021/05/18 16:24:21;;;;;;;4.10;3.40;;;17.20;93.00;;;;;;5051737;28;20187;-63
2021/05/18 16:26:47;;;;;;;4.03;3.67;;;17.30;94.70;;;;;;5051588;28;20176;-63
2021/05/18 16:29:12;;;;;;;4.23;3.87;;;17.30;93.90;;;;;;5051105;28;20406;-63
2021/05/18 16:31:38;;;;;;;5.33;3.77;;;17.20;93.40;;;;;;5051558;28;20406;-63
2021/05/18 16:34:04;;;;;;;4.50;3.50;;;17.10;93.30;;;;;;5051649;28;20176;-63
2021/05/18 16:36:30;;;;;;;4.17;3.20;;;17.10;94.50;;;;;;5051489;28;20706;-63
2021/05/18 16:38:56;;;;;;;3.53;3.33;;;17.10;94.10;;;;;;5053874;28;20171;-63
2021/05/18 16:41:22;;;;;;;4.40;4.00;;;17.10;94.00;;;;;;5055282;28;20191;-62
2021/05/18 16:43:48;;;;;;;3.70;3.50;;;17.10;93.80;;;;;;5055166;28;20184;-63
2021/05/18 16:46:14;;;;;;;7.17;3.37;;;17.20;93.50;;;;;;5055513;28;20414;-62
2021/05/18 16:48:40;;;;;;;3.20;2.90;;;17.10;94.60;;;;;;5055232;28;20541;-63
2021/05/18 16:51:08;;;;;;;4.27;3.97;;;17.30;95.30;;;;;;5054925;28;20487;-63
2021/05/18 16:53:34;;;;;;;4.17;3.87;;;17.30;94.70;;;;;;5055153;28;20417;-63
2021/05/18 16:56:02;;;;;;;3.90;3.60;;;16.80;93.50;;;;;;5055070;28;20898;-63
2021/05/18 16:58:28;;;;;;;3.37;3.17;;;16.90;94.40;;;;;;5055013;28;20497;-63
2021/05/18 17:00:53;;;;;;;3.60;3.30;;;17.00;95.10;;;;;;5054617;28;20596;-63
2021/05/18 17:03:19;;;;;;;4.40;4.10;;;17.00;95.00;;;;;;5054958;28;20176;-63
2021/05/18 17:05:44;;;;;;;3.60;3.40;;;16.70;94.30;;;;;;5054897;28;20164;-63
2021/05/18 17:08:10;;;;;;;3.60;3.40;;;16.30;94.10;;;;;;5055273;28;20164;-63
2021/05/18 17:10:39;;;;;;;3.23;3.03;;;15.90;95.30;;;;;;5054578;28;20203;-63
2021/05/18 17:13:05;;;;;;;4.23;3.87;;;16.00;95.40;;;;;;5054636;28;20164;-63
2021/05/18 17:15:31;;;;;;;9.40;4.37;;;16.10;96.40;;;;;;5054749;28;20483;-63
2021/05/18 17:17:57;;;;;;;4.83;4.43;;;16.20;98.30;;;;;;5054813;28;20986;-62
2021/05/18 17:20:25;;;;;;;5.77;4.20;;;16.20;97.10;;;;;;5054301;28;20225;-62
2021/05/18 17:22:51;;;;;;;3.80;3.50;;;16.20;97.80;;;;;;5054618;28;20458;-62
2021/05/18 17:25:17;;;;;;;4.73;4.43;;;16.20;96.90;;;;;;5054944;28;20475;-63
2021/05/18 17:27:43;;;;;;;4.90;2.90;;;16.20;96.30;;;;;;5054650;28;20204;-62
2021/05/18 17:30:11;;;;;;;3.20;3.00;;;16.10;96.40;;;;;;5054219;28;20432;-62
2021/05/18 17:32:37;;;;;;;3.53;3.33;;;16.00;96.80;;;;;;5054626;28;20282;-62
2021/05/18 17:35:04;;;;;;;3.40;3.20;;;16.10;96.10;;;;;;5054290;28;20464;-62
2021/05/18 17:37:30;;;;;;;3.53;3.33;;;16.20;96.60;;;;;;5054441;28;20180;-63
2021/05/18 17:39:55;;;;;;;3.80;3.50;;;16.20;96.50;;;;;;5054335;28;20433;-63
2021/05/18 17:42:21;;;;;;;4.80;3.87;;;16.00;96.20;;;;;;5054353;28;20214;-63
2021/05/18 17:44:47;;;;;;;3.03;2.83;;;15.80;96.30;;;;;;5054134;28;20168;-62
2021/05/18 17:47:13;;;;;;;4.03;3.83;;;15.70;96.70;;;;;;5054430;28;20202;-62
2021/05/18 17:49:39;;;;;;;3.93;3.50;;;15.60;97.10;;;;;;5053111;28;20249;-63
2021/05/18 17:52:08;;;;;;;3.20;3.00;;;15.50;96.90;;;;;;5054163;28;20419;-62
2021/05/18 17:54:36;;;;;;;3.50;3.20;;;15.40;97.60;;;;;;5054114;28;20210;-63
2021/05/18 17:57:02;;;;;;;2.97;2.67;;;15.40;97.10;;;;;;5054386;28;20414;-63
2021/05/18 17:59:28;;;;;;;4.70;3.40;;;15.40;97.90;;;;;;5053697;28;20430;-63
2021/05/18 18:01:54;;;;;;;3.93;3.60;;;15.30;97.90;;;;;;5054032;28;20532;-62
2021/05/18 18:04:20;;;;;;;3.37;3.07;;;15.30;98.20;;;;;;5054185;28;20180;-62
2021/05/18 18:06:45;;;;;;;3.70;3.40;;;15.30;97.30;;;;;;5053945;28;20760;-62
2021/05/18 18:09:11;;;;;;;3.77;3.50;;;15.40;98.20;;;;;;5053387;28;20175;-62
2021/05/18 18:11:38;;;;;;;5.17;4.80;;;15.30;97.50;;;;;;5053844;28;20679;-63